Terminal Aerodrome Forecast
Issued by NWS Topeka, KS

Home | Current Version | Previous Version | Graphics & Text | Print | Product List | Glossary On
Versions: 1 2 3 4 5 6 7 8 9 10 11 12 13 14 15 16 17 18 19 20 21 22 23 24 25 26 27 28 29
000
FTUS43 KTOP 192320
TAFTOP
TAF
KTOP 192320Z 2000/2024 36008KT P6SM VCSH OVC015
     FM200200 04009KT P6SM -FZDZ VCSH OVC025
     FM200600 05008KT P6SM -FZRA OVC012 WS020/18035KT
     FM200900 31009KT 5SM -FZRA BR OVC008
     FM201700 33011KT P6SM OVC010
     FM202000 34012G18KT P6SM SCT050=

USA.gov is the U.S. government's official web portal to all federal, state and local government web resources and services.